Terminal Aerodrome Forecast
Issued by NWS

Current Version | Previous Version | Text Only | Print | Product List | Glossary Off
Versions: 1 2 3 4 5 6 7 8 9 10 11 12 13 14 15 16 17 18 19

000
FTUS41 KILN 031700
TAFLUK
TAF
KLUK 031726Z 0318/0418 20012KT P6SM SCT060
     FM032300 18003KT P6SM SCT150
      TEMPO 0407/0411 3SM BR
     FM041600 21010G18KT P6SM FEW050 SCT100=

USA.gov is the U.S. government's official web portal to all federal, state and local government web resources and services.